createdAt,value
2023-05-08T00:00:52.549Z,16.11
2023-05-08T00:01:52.578Z,16.08
2023-05-08T00:02:52.702Z,16.04
2023-05-08T00:03:53.062Z,15.98
2023-05-08T00:04:52.712Z,16.04
2023-05-08T00:05:52.702Z,16.00
2023-05-08T00:06:52.725Z,16.00
2023-05-08T00:07:52.754Z,16.04
2023-05-08T00:08:52.783Z,16.00
2023-05-08T00:09:52.810Z,16.04
2023-05-08T00:10:52.841Z,16.02
2023-05-08T00:11:52.871Z,16.06
2023-05-08T00:12:53.039Z,15.98
2023-05-08T00:13:52.942Z,16.00
2023-05-08T00:14:52.955Z,16.04
2023-05-08T00:15:52.991Z,15.96
2023-05-08T00:16:53.062Z,16.04
2023-05-08T00:17:53.066Z,15.98
2023-05-08T00:18:53.075Z,16.04
2023-05-08T00:19:53.122Z,16.00
2023-05-08T00:20:53.134Z,15.93
2023-05-08T00:21:53.163Z,16.07
2023-05-08T00:22:53.189Z,16.10
2023-05-08T00:23:53.225Z,15.95
2023-05-08T00:24:53.247Z,16.04
2023-05-08T00:25:53.278Z,15.99
2023-05-08T00:26:53.308Z,15.93
2023-05-08T00:27:53.345Z,15.99
2023-05-08T00:28:53.495Z,15.95
2023-05-08T00:29:53.389Z,16.00
2023-05-08T00:30:53.432Z,16.02
2023-05-08T00:31:53.461Z,15.99
2023-05-08T00:32:53.541Z,16.00
2023-05-08T00:33:53.515Z,15.99
2023-05-08T00:34:53.538Z,15.99
2023-05-08T00:35:53.564Z,15.96
2023-05-08T00:36:53.594Z,16.00
2023-05-08T00:37:53.623Z,15.91
2023-05-08T00:38:53.674Z,15.84
2023-05-08T00:39:53.682Z,15.86
2023-05-08T00:40:53.709Z,15.89
2023-05-08T00:41:53.741Z,15.84
2023-05-08T00:42:53.768Z,15.86
2023-05-08T00:43:53.799Z,15.99
2023-05-08T00:44:53.847Z,15.95
2023-05-08T00:45:53.875Z,16.02
2023-05-08T00:46:53.885Z,15.86
2023-05-08T00:47:53.955Z,15.96
2023-05-08T00:48:53.948Z,16.00
2023-05-08T00:49:53.968Z,15.98
2023-05-08T00:50:54.809Z,15.92
2023-05-08T00:51:54.027Z,15.96
2023-05-08T00:52:54.059Z,15.95
2023-05-08T00:53:54.083Z,15.86
2023-05-08T00:54:54.116Z,15.86
2023-05-08T00:55:54.147Z,15.91
2023-05-08T00:56:54.172Z,15.83
2023-05-08T00:57:54.214Z,15.83
2023-05-08T00:58:54.233Z,15.88
2023-05-08T00:59:54.280Z,15.93
2023-05-08T01:00:54.317Z,15.78
2023-05-08T01:01:54.396Z,15.88
2023-05-08T01:02:54.437Z,15.86
2023-05-08T01:03:54.553Z,15.88
2023-05-08T01:04:54.406Z,15.88
2023-05-08T01:05:54.543Z,15.88
2023-05-08T01:06:54.464Z,15.88
2023-05-08T01:07:54.577Z,15.86
2023-05-08T01:08:54.635Z,15.77
2023-05-08T01:09:54.626Z,15.75
2023-05-08T01:10:54.588Z,15.81
2023-05-08T01:11:54.812Z,15.71
2023-05-08T01:12:54.697Z,15.81
2023-05-08T01:13:54.670Z,15.73
2023-05-08T01:14:55.103Z,15.70
2023-05-08T01:15:54.757Z,15.71
2023-05-08T01:16:54.774Z,15.71
2023-05-08T01:17:54.846Z,15.71
2023-05-08T01:18:54.813Z,15.68
2023-05-08T01:19:54.844Z,15.70
2023-05-08T01:20:54.873Z,15.58
2023-05-08T01:21:54.899Z,15.65
2023-05-08T01:22:54.931Z,15.58
2023-05-08T01:23:54.960Z,15.62
2023-05-08T01:24:54.988Z,15.70
2023-05-08T01:25:55.014Z,15.71
2023-05-08T01:26:55.046Z,15.67
2023-05-08T01:27:55.072Z,15.63
2023-05-08T01:28:55.103Z,15.58
2023-05-08T01:29:55.132Z,15.62
2023-05-08T01:30:55.160Z,15.60
2023-05-08T01:31:55.192Z,15.68
2023-05-08T01:32:55.306Z,15.60
2023-05-08T01:33:55.355Z,15.60
2023-05-08T01:34:55.284Z,15.58
2023-05-08T01:35:55.304Z,15.52
2023-05-08T01:36:55.333Z,15.58
2023-05-08T01:37:55.367Z,15.53
2023-05-08T01:38:55.403Z,15.52
2023-05-08T01:39:55.433Z,15.55
2023-05-08T01:40:55.451Z,15.58
2023-05-08T01:41:55.512Z,15.45
2023-05-08T01:42:55.508Z,15.44
2023-05-08T01:43:55.536Z,15.49
2023-05-08T01:44:55.565Z,15.49
2023-05-08T01:45:55.600Z,15.44
2023-05-08T01:46:55.646Z,15.45
2023-05-08T01:47:55.712Z,15.40
2023-05-08T01:48:55.763Z,15.44
2023-05-08T01:49:55.708Z,15.38
2023-05-08T01:50:55.745Z,15.43
2023-05-08T01:51:55.769Z,15.44
2023-05-08T01:52:55.811Z,15.43
2023-05-08T01:53:55.825Z,15.45
2023-05-08T01:54:55.873Z,15.45
2023-05-08T01:55:55.881Z,15.47
2023-05-08T01:56:55.913Z,15.41
2023-05-08T01:57:55.955Z,15.43
2023-05-08T01:58:56.174Z,15.43
2023-05-08T01:59:56.006Z,15.37
2023-05-08T02:00:56.138Z,15.40
2023-05-08T02:01:56.090Z,15.44
2023-05-08T02:02:56.181Z,15.38
2023-05-08T02:03:56.164Z,15.37
2023-05-08T02:04:56.165Z,15.45
2023-05-08T02:05:56.171Z,15.47
2023-05-08T02:06:56.204Z,15.47
2023-05-08T02:07:56.227Z,15.40
2023-05-08T02:08:56.268Z,15.44
2023-05-08T02:10:43.866Z,15.49
2023-05-08T02:23:21.468Z,15.34
2023-05-08T02:25:21.726Z,15.33
2023-05-08T02:27:22.498Z,15.35
2023-05-08T02:28:21.808Z,15.31
2023-05-08T02:30:21.650Z,15.27
2023-05-08T02:31:21.696Z,15.35
2023-05-08T02:32:21.868Z,15.34
2023-05-08T02:33:21.736Z,15.40
2023-05-08T02:34:21.766Z,15.35
2023-05-08T02:35:21.804Z,15.35
2023-05-08T02:36:21.830Z,15.34
2023-05-08T02:37:21.874Z,15.31
2023-05-08T02:38:21.884Z,15.34
2023-05-08T02:39:25.946Z,15.37
2023-05-08T02:40:22.151Z,15.34
2023-05-08T02:41:21.967Z,15.37
2023-05-08T02:42:21.994Z,15.34
2023-05-08T02:44:22.065Z,15.37
2023-05-08T02:45:22.079Z,15.31
2023-05-08T02:46:22.175Z,15.30
2023-05-08T02:47:22.233Z,15.20
2023-05-08T02:48:22.166Z,15.23
2023-05-08T02:49:22.196Z,15.25
2023-05-08T02:50:22.227Z,15.25
2023-05-08T02:51:22.252Z,15.27
2023-05-08T02:52:22.284Z,15.27
2023-05-08T02:53:22.308Z,15.19
2023-05-08T02:54:22.340Z,15.33
2023-05-08T02:55:22.487Z,15.34
2023-05-08T02:56:22.400Z,15.31
2023-05-08T02:57:22.427Z,15.26
2023-05-08T02:58:22.456Z,15.26
2023-05-08T02:59:22.498Z,15.27
2023-05-08T03:00:22.529Z,15.25
2023-05-08T03:01:22.587Z,15.27
2023-05-08T03:02:22.689Z,15.19
2023-05-08T03:03:22.719Z,15.22
2023-05-08T03:04:22.631Z,15.19
2023-05-08T03:05:22.666Z,15.25
2023-05-08T03:06:22.689Z,15.26
2023-05-08T03:07:22.713Z,15.22
2023-05-08T03:08:22.743Z,15.27
2023-05-08T03:09:22.782Z,15.22
2023-05-08T03:10:22.803Z,15.26
2023-05-08T03:11:22.908Z,15.16
2023-05-08T03:12:22.857Z,15.08
2023-05-08T03:13:22.954Z,15.18
2023-05-08T03:14:22.935Z,15.23
2023-05-08T03:15:22.961Z,15.23
2023-05-08T03:16:23.296Z,15.10
2023-05-08T03:17:23.068Z,15.19
2023-05-08T03:19:23.534Z,15.23
2023-05-08T03:20:23.104Z,15.25
2023-05-08T03:22:23.566Z,15.13
2023-05-08T03:23:23.604Z,15.12
2023-05-08T03:25:26.882Z,15.18
2023-05-08T03:26:25.910Z,15.15
2023-05-08T03:27:23.292Z,15.07
2023-05-08T03:28:23.329Z,15.15
2023-05-08T03:29:23.339Z,15.10
2023-05-08T03:30:23.363Z,15.10
2023-05-08T03:31:23.493Z,15.08
2023-05-08T03:32:23.452Z,15.08
2023-05-08T03:34:31.060Z,15.07
2023-05-08T03:35:31.089Z,15.10
2023-05-08T03:36:31.117Z,15.08
2023-05-08T03:37:31.147Z,15.08
2023-05-08T03:38:31.170Z,15.04
2023-05-08T03:39:31.215Z,15.10
2023-05-08T03:40:31.227Z,15.07
2023-05-08T03:41:31.325Z,15.02
2023-05-08T03:42:31.281Z,14.98
2023-05-08T03:43:31.312Z,15.05
2023-05-08T03:44:31.338Z,15.07
2023-05-08T03:45:31.367Z,15.08
2023-05-08T03:46:34.476Z,15.05
2023-05-08T03:47:31.503Z,15.12
2023-05-08T03:48:31.458Z,14.95
2023-05-08T03:49:31.475Z,15.05
2023-05-08T03:50:31.505Z,15.05
2023-05-08T03:51:31.534Z,15.07
2023-05-08T03:52:31.563Z,14.97
2023-05-08T03:53:31.590Z,15.04
2023-05-08T03:54:31.626Z,14.94
2023-05-08T03:55:31.653Z,15.01
2023-05-08T03:56:31.674Z,15.01
2023-05-08T03:57:31.723Z,14.94
2023-05-08T03:58:31.730Z,15.01
2023-05-08T03:59:31.772Z,15.02
2023-05-08T04:00:31.795Z,15.01
2023-05-08T04:01:31.835Z,14.93
2023-05-08T04:02:31.956Z,14.95
2023-05-08T04:03:31.955Z,14.98
2023-05-08T04:04:31.916Z,14.83
2023-05-08T04:05:31.939Z,14.89
2023-05-08T04:06:38.860Z,14.86
2023-05-08T04:07:32.010Z,14.87
2023-05-08T04:08:32.014Z,14.93
2023-05-08T04:09:32.045Z,14.87
2023-05-08T04:10:32.077Z,14.94
2023-05-08T04:11:32.100Z,14.95
2023-05-08T04:12:32.135Z,14.89
2023-05-08T04:13:32.262Z,14.87
2023-05-08T04:14:32.201Z,14.94
2023-05-08T04:15:32.217Z,14.83
2023-05-08T04:16:32.247Z,14.89
2023-05-08T04:17:32.356Z,14.86
2023-05-08T04:18:32.301Z,14.94
2023-05-08T04:19:32.325Z,14.93
2023-05-08T04:20:32.402Z,14.95
2023-05-08T04:21:32.381Z,14.95
2023-05-08T04:22:32.415Z,14.90
2023-05-08T04:23:32.450Z,14.83
2023-05-08T04:24:32.462Z,14.93
2023-05-08T04:25:32.495Z,14.90
2023-05-08T04:26:32.523Z,14.89
2023-05-08T04:27:32.548Z,14.83
2023-05-08T04:28:32.580Z,14.80
2023-05-08T04:29:32.626Z,14.77
2023-05-08T04:30:33.452Z,14.85
2023-05-08T04:31:32.701Z,14.85
2023-05-08T04:32:32.704Z,14.90
2023-05-08T04:33:32.716Z,14.89
2023-05-08T04:34:32.745Z,14.83
2023-05-08T04:35:32.775Z,14.95
2023-05-08T04:36:32.802Z,14.87
2023-05-08T04:37:32.826Z,14.90
2023-05-08T04:38:32.872Z,14.79
2023-05-08T04:39:32.888Z,14.79
2023-05-08T04:40:32.914Z,14.90
2023-05-08T04:41:33.006Z,14.87
2023-05-08T04:42:32.968Z,14.98
2023-05-08T04:43:33.002Z,14.93
2023-05-08T04:44:33.029Z,14.87
2023-05-08T04:45:33.108Z,14.89
2023-05-08T04:46:33.150Z,14.89
2023-05-08T04:47:33.167Z,14.85
2023-05-08T04:48:33.147Z,14.95
2023-05-08T04:49:33.166Z,14.85
2023-05-08T04:50:33.191Z,14.90
2023-05-08T04:51:33.233Z,14.85
2023-05-08T04:52:33.290Z,14.93
2023-05-08T04:53:33.280Z,14.87
2023-05-08T04:54:33.305Z,14.86
2023-05-08T04:55:33.335Z,14.89
2023-05-08T04:56:33.362Z,14.90
2023-05-08T04:57:33.391Z,14.90
2023-05-08T04:58:33.419Z,14.93
2023-05-08T04:59:33.450Z,14.90
2023-05-08T05:00:33.475Z,14.85
2023-05-08T05:01:33.595Z,14.83
2023-05-08T05:02:33.591Z,14.87
2023-05-08T05:03:33.623Z,14.87
2023-05-08T05:04:33.586Z,14.95
2023-05-08T05:05:33.615Z,14.90
2023-05-08T05:06:33.643Z,14.94
2023-05-08T05:07:33.677Z,14.94
2023-05-08T05:08:33.699Z,14.90
2023-05-08T05:09:33.731Z,14.94
2023-05-08T05:10:33.750Z,15.02
2023-05-08T05:11:33.782Z,14.94
2023-05-08T05:12:33.808Z,15.02
2023-05-08T05:13:34.049Z,15.07
2023-05-08T05:14:33.866Z,14.95
2023-05-08T05:15:33.907Z,15.05
2023-05-08T05:16:33.976Z,15.04
2023-05-08T05:17:33.979Z,15.01
2023-05-08T05:18:33.980Z,15.05
2023-05-08T05:19:34.010Z,15.07
2023-05-08T05:20:34.034Z,15.07
2023-05-08T05:21:34.071Z,15.10
2023-05-08T05:22:34.090Z,15.12
2023-05-08T05:23:34.122Z,15.12
2023-05-08T05:24:34.147Z,15.07
2023-05-08T05:25:34.174Z,15.00
2023-05-08T05:26:36.414Z,15.07
2023-05-08T05:27:34.234Z,15.08
2023-05-08T05:28:34.260Z,15.07
2023-05-08T05:29:34.288Z,15.13
2023-05-08T05:30:34.316Z,15.05
2023-05-08T05:31:34.399Z,15.10
2023-05-08T05:32:34.394Z,15.27
2023-05-08T05:33:34.422Z,15.26
2023-05-08T05:34:34.429Z,15.31
2023-05-08T05:35:34.467Z,15.44
2023-05-08T05:36:34.500Z,15.33
2023-05-08T05:37:34.522Z,15.34
2023-05-08T05:38:34.538Z,15.33
2023-05-08T05:39:34.572Z,15.25
2023-05-08T05:40:34.598Z,15.40
2023-05-08T05:41:34.628Z,15.31
2023-05-08T05:42:34.655Z,15.31
2023-05-08T05:43:34.680Z,15.34
2023-05-08T05:44:34.710Z,15.31
2023-05-08T05:45:34.738Z,15.41
2023-05-08T05:46:34.825Z,15.40
2023-05-08T05:47:34.818Z,15.33
2023-05-08T05:48:34.822Z,15.34
2023-05-08T05:49:34.873Z,15.37
2023-05-08T05:50:34.878Z,15.33
2023-05-08T05:51:34.905Z,15.34
2023-05-08T05:52:34.936Z,15.26
2023-05-08T05:53:34.971Z,15.40
2023-05-08T05:54:34.993Z,15.41
2023-05-08T05:55:35.026Z,15.45
2023-05-08T05:56:35.055Z,15.45
2023-05-08T05:57:35.079Z,15.45
2023-05-08T05:58:35.106Z,15.30
2023-05-08T05:59:35.155Z,15.31
2023-05-08T06:00:35.179Z,15.31
2023-05-08T06:01:35.192Z,15.27
2023-05-08T06:02:35.294Z,15.19
2023-05-08T06:03:35.423Z,15.33
2023-05-08T06:04:35.362Z,15.31
2023-05-08T06:05:35.343Z,15.34
2023-05-08T06:06:35.336Z,15.31
2023-05-08T06:07:35.398Z,15.31
2023-05-08T06:08:35.408Z,15.33
2023-05-08T06:09:35.431Z,15.27
2023-05-08T06:10:35.454Z,15.34
2023-05-08T06:11:35.479Z,15.38
2023-05-08T06:12:35.505Z,15.33
2023-05-08T06:13:35.531Z,15.34
2023-05-08T06:14:35.564Z,15.41
2023-05-08T06:15:35.597Z,15.45
2023-05-08T06:16:35.721Z,15.47
2023-05-08T06:17:35.688Z,15.55
2023-05-08T06:18:35.673Z,15.55
2023-05-08T06:19:35.710Z,15.55
2023-05-08T06:20:35.732Z,15.47
2023-05-08T06:21:35.787Z,15.53
2023-05-08T06:22:35.787Z,15.47
2023-05-08T06:23:35.823Z,15.60
2023-05-08T06:24:35.855Z,15.55
2023-05-08T06:26:38.479Z,15.51
2023-05-08T06:27:38.523Z,15.53
2023-05-08T06:28:38.567Z,15.60
2023-05-08T06:29:38.589Z,15.59
2023-05-08T06:30:38.611Z,15.53
2023-05-08T06:31:38.616Z,15.52
2023-05-08T06:32:38.671Z,15.62
2023-05-08T06:33:38.685Z,15.45
2023-05-08T06:34:38.703Z,15.43
2023-05-08T06:35:38.734Z,15.44
2023-05-08T06:36:38.799Z,15.56
2023-05-08T06:37:38.796Z,15.56
2023-05-08T06:38:38.837Z,15.58
2023-05-08T06:39:38.850Z,15.68
2023-05-08T06:40:38.878Z,15.73
2023-05-08T06:41:38.910Z,15.68
2023-05-08T06:42:38.953Z,15.62
2023-05-08T06:43:38.968Z,15.67
2023-05-08T06:44:38.994Z,15.68
2023-05-08T06:45:39.020Z,15.71
2023-05-08T06:46:39.080Z,15.71
2023-05-08T06:47:39.158Z,15.78
2023-05-08T06:48:39.107Z,15.74
2023-05-08T06:49:39.136Z,15.71
2023-05-08T06:50:39.169Z,15.81
2023-05-08T06:51:39.195Z,15.83
2023-05-08T06:52:39.240Z,15.99
2023-05-08T06:53:41.873Z,15.95
2023-05-08T06:54:39.276Z,15.86
2023-05-08T06:55:39.516Z,15.98
2023-05-08T06:57:24.707Z,15.91
2023-05-08T06:58:22.135Z,15.83
2023-05-08T06:59:23.212Z,15.86
2023-05-08T07:00:21.976Z,15.86
2023-05-08T07:01:22.001Z,15.89
2023-05-08T07:02:22.046Z,15.99
2023-05-08T07:04:44.954Z,16.00
2023-05-08T07:05:44.904Z,16.17
2023-05-08T07:06:44.936Z,16.14
2023-05-08T07:07:44.981Z,16.11
2023-05-08T07:08:45.007Z,16.08
2023-05-08T07:09:45.026Z,16.07
2023-05-08T07:10:45.051Z,16.07
2023-05-08T07:11:45.084Z,16.06
2023-05-08T07:12:45.167Z,15.95
2023-05-08T07:13:45.139Z,16.02
2023-05-08T07:14:45.165Z,16.07
2023-05-08T07:15:45.241Z,16.13
2023-05-08T07:16:45.225Z,16.10
2023-05-08T07:17:45.282Z,16.14
2023-05-08T07:18:45.284Z,16.22
2023-05-08T07:19:45.310Z,16.21
2023-05-08T07:20:45.337Z,16.26
2023-05-08T07:21:45.423Z,16.36
2023-05-08T07:22:45.394Z,16.49
2023-05-08T07:23:45.479Z,16.49
2023-05-08T07:24:45.458Z,16.54
2023-05-08T07:25:45.493Z,16.63
2023-05-08T07:26:45.530Z,16.62
2023-05-08T07:28:28.152Z,16.87
2023-05-08T07:29:28.190Z,17.00
2023-05-08T07:30:28.246Z,17.10
2023-05-08T07:31:28.281Z,17.06
2023-05-08T07:32:28.279Z,17.20
2023-05-08T07:33:28.303Z,17.27
2023-05-08T07:34:28.331Z,17.47
2023-05-08T07:35:28.368Z,17.68
2023-05-08T07:36:28.802Z,17.62
2023-05-08T07:37:28.412Z,17.63
2023-05-08T07:38:28.442Z,17.73
2023-05-08T07:39:28.519Z,17.46
2023-05-08T07:40:28.495Z,17.42
2023-05-08T07:41:28.573Z,17.43
2023-05-08T07:42:28.558Z,17.49
2023-05-08T07:43:28.587Z,17.52
2023-05-08T07:44:28.629Z,17.57
2023-05-08T07:45:28.646Z,17.43
2023-05-08T07:46:28.748Z,17.52
2023-05-08T07:47:28.727Z,17.57
2023-05-08T07:48:28.734Z,17.60
2023-05-08T07:49:28.766Z,17.77
2023-05-08T07:50:28.794Z,17.76
2023-05-08T07:51:28.842Z,17.81
2023-05-08T07:52:28.865Z,17.76
2023-05-08T07:53:28.882Z,17.83
2023-05-08T07:54:28.917Z,17.90
2023-05-08T07:55:28.963Z,17.92
2023-05-08T07:56:28.980Z,17.96
2023-05-08T07:57:29.003Z,17.95
2023-05-08T07:58:29.033Z,18.11
2023-05-08T07:59:29.104Z,18.31
2023-05-08T08:00:29.091Z,18.61
2023-05-08T08:01:29.123Z,18.76
2023-05-08T08:02:29.201Z,19.02
2023-05-08T08:03:29.325Z,19.42
2023-05-08T08:04:29.263Z,20.07
2023-05-08T08:05:29.257Z,20.20
2023-05-08T08:06:29.272Z,20.58
2023-05-08T08:07:29.308Z,21.13
2023-05-08T08:08:29.342Z,21.92
2023-05-08T08:09:29.375Z,22.44
2023-05-08T08:10:29.411Z,22.26
2023-05-08T08:11:29.568Z,22.27
2023-05-08T08:12:29.463Z,22.63
2023-05-08T08:13:29.563Z,22.86
2023-05-08T08:14:29.530Z,22.66
2023-05-08T08:15:29.574Z,22.51
2023-05-08T08:16:29.667Z,21.97
2023-05-08T08:17:29.686Z,21.77
2023-05-08T08:18:29.661Z,21.41
2023-05-08T08:19:29.694Z,20.93
2023-05-08T08:20:29.729Z,20.74
2023-05-08T08:21:29.761Z,20.30
2023-05-08T08:22:29.793Z,20.16
2023-05-08T08:23:29.827Z,20.12
2023-05-08T08:24:29.870Z,20.07
2023-05-08T08:25:29.901Z,20.02
2023-05-08T08:26:29.926Z,19.89
2023-05-08T08:27:30.313Z,19.98
2023-05-08T08:28:29.999Z,19.89
2023-05-08T08:29:30.025Z,19.87
2023-05-08T08:30:30.056Z,19.79
2023-05-08T08:31:30.210Z,19.56
2023-05-08T08:32:30.173Z,19.64
2023-05-08T08:33:30.157Z,19.75
2023-05-08T08:34:30.412Z,19.93
2023-05-08T08:35:30.267Z,20.04
2023-05-08T08:36:30.267Z,19.90
2023-05-08T08:37:30.287Z,19.93
2023-05-08T08:38:30.328Z,20.01
2023-05-08T08:39:30.352Z,20.18
2023-05-08T08:40:30.383Z,20.25
2023-05-08T08:41:30.418Z,20.15
2023-05-08T08:42:30.448Z,19.89
2023-05-08T08:44:30.675Z,19.89
2023-05-08T08:45:30.543Z,19.89
2023-05-08T08:46:30.712Z,19.89
2023-05-08T08:47:30.639Z,19.86
2023-05-08T08:48:30.670Z,19.70
2023-05-08T08:49:30.678Z,19.72
2023-05-08T08:50:30.911Z,19.80
2023-05-08T08:51:30.941Z,19.74
2023-05-08T08:52:30.784Z,19.67
2023-05-08T08:53:30.804Z,19.79
2023-05-08T08:54:30.840Z,19.63
2023-05-08T08:55:30.867Z,19.60
2023-05-08T08:56:30.907Z,19.50
2023-05-08T08:57:30.938Z,19.50
2023-05-08T08:58:30.962Z,19.63
2023-05-08T08:59:30.994Z,19.53
2023-05-08T09:00:31.162Z,19.52
2023-05-08T09:01:31.085Z,19.50
2023-05-08T09:02:31.231Z,19.47
2023-05-08T09:03:31.174Z,19.34
2023-05-08T09:04:31.171Z,19.38
2023-05-08T09:05:31.181Z,19.43
2023-05-08T09:06:31.225Z,19.42
2023-05-08T09:07:31.258Z,19.38
2023-05-08T09:08:31.279Z,19.46
2023-05-08T09:09:31.310Z,19.46
2023-05-08T09:10:31.357Z,19.45
2023-05-08T09:11:31.375Z,19.53
2023-05-08T09:12:31.414Z,19.60
2023-05-08T09:13:31.630Z,19.72
2023-05-08T09:14:31.675Z,19.63
2023-05-08T09:15:31.499Z,19.72
2023-05-08T09:16:31.677Z,19.67
2023-05-08T09:17:31.603Z,19.70
2023-05-08T09:18:31.607Z,19.55
2023-05-08T09:19:31.629Z,19.53
2023-05-08T09:20:31.670Z,19.43
2023-05-08T09:21:31.688Z,19.30
2023-05-08T09:22:31.746Z,19.47
2023-05-08T09:23:31.748Z,19.47
2023-05-08T09:24:31.785Z,19.49
2023-05-08T09:25:31.826Z,19.43
2023-05-08T09:26:31.866Z,19.47
2023-05-08T09:27:31.901Z,19.37
2023-05-08T09:28:32.230Z,19.40
2023-05-08T09:29:31.965Z,19.37
2023-05-08T09:30:31.996Z,19.45
2023-05-08T09:31:32.804Z,19.38
2023-05-08T09:32:32.397Z,19.35
2023-05-08T09:33:32.063Z,19.40
2023-05-08T09:34:32.099Z,19.46
2023-05-08T09:35:32.118Z,19.45
2023-05-08T09:36:32.235Z,19.40
2023-05-08T09:37:32.197Z,19.43
2023-05-08T09:38:32.230Z,19.43
2023-05-08T09:39:32.243Z,19.34
2023-05-08T09:40:32.299Z,19.42
2023-05-08T09:41:32.319Z,19.38
2023-05-08T09:42:32.363Z,19.12
2023-05-08T09:43:32.378Z,18.96
2023-05-08T09:44:32.398Z,18.84
2023-05-08T09:45:32.579Z,18.94
2023-05-08T09:46:32.466Z,18.96
2023-05-08T09:47:32.847Z,18.94
2023-05-08T09:48:32.641Z,18.91
2023-05-08T09:49:32.567Z,18.91
2023-05-08T09:50:32.587Z,18.89
2023-05-08T09:51:32.616Z,18.87
2023-05-08T09:52:32.653Z,18.86
2023-05-08T09:53:32.681Z,18.76
2023-05-08T09:54:32.725Z,18.74
2023-05-08T09:55:32.753Z,18.65
2023-05-08T09:56:32.770Z,18.71
2023-05-08T09:57:32.798Z,18.69
2023-05-08T09:58:32.834Z,18.61
2023-05-08T09:59:34.361Z,18.51
2023-05-08T10:00:32.914Z,18.51
2023-05-08T10:01:33.037Z,18.41
2023-05-08T10:02:32.991Z,18.32
2023-05-08T10:03:33.012Z,18.27
2023-05-08T10:04:33.137Z,18.20
2023-05-08T10:05:33.307Z,18.17
2023-05-08T10:06:33.091Z,18.21
2023-05-08T10:07:33.121Z,18.23
2023-05-08T10:08:33.138Z,18.19
2023-05-08T10:09:46.940Z,18.17
2023-05-08T10:10:33.199Z,18.27
2023-05-08T10:11:33.242Z,18.21
2023-05-08T10:12:35.881Z,18.19
2023-05-08T10:13:33.294Z,18.16
2023-05-08T10:14:33.328Z,18.08
2023-05-08T10:15:33.351Z,18.06
2023-05-08T10:16:33.423Z,17.94
2023-05-08T10:17:33.451Z,17.86
2023-05-08T10:19:33.488Z,17.76
2023-05-08T10:20:33.620Z,17.87
2023-05-08T10:23:06.793Z,17.74
2023-05-08T10:23:33.606Z,17.84
2023-05-08T10:24:33.652Z,17.80
2023-05-08T10:25:34.301Z,17.77
2023-05-08T10:26:33.682Z,17.76
2023-05-08T10:27:33.716Z,17.74
2023-05-08T10:28:33.760Z,17.84
2023-05-08T10:29:33.974Z,17.77
2023-05-08T10:30:33.801Z,17.76
2023-05-08T10:31:33.879Z,17.74
2023-05-08T10:32:33.882Z,17.83
2023-05-08T10:33:33.979Z,17.79
2023-05-08T10:34:33.934Z,17.86
2023-05-08T10:35:33.972Z,17.92
2023-05-08T10:36:34.409Z,17.92
2023-05-08T10:37:34.097Z,17.96
2023-05-08T10:38:34.065Z,17.98
2023-05-08T10:39:34.491Z,17.84
2023-05-08T10:41:34.345Z,17.95
2023-05-08T10:42:34.191Z,17.92
2023-05-08T10:43:35.026Z,17.99
2023-05-08T10:48:34.768Z,18.06
2023-05-08T10:49:34.586Z,18.03
2023-05-08T10:50:34.400Z,18.02
2023-05-08T10:52:17.021Z,18.06
2023-05-08T10:53:17.020Z,18.13
2023-05-08T10:54:17.053Z,18.19
2023-05-08T10:55:17.076Z,18.21
2023-05-08T10:56:17.118Z,18.10
2023-05-08T10:57:17.345Z,17.99
2023-05-08T10:58:17.162Z,17.87
2023-05-08T10:59:17.280Z,17.96
2023-05-08T11:00:17.290Z,18.08
2023-05-08T11:01:17.370Z,17.96
2023-05-08T11:02:17.371Z,18.02
2023-05-08T11:03:29.954Z,17.96
2023-05-08T11:05:17.383Z,18.03
2023-05-08T11:06:17.406Z,18.16
2023-05-08T11:07:17.750Z,18.06
2023-05-08T11:09:18.135Z,17.87
2023-05-08T11:10:17.528Z,17.81
2023-05-08T11:12:18.147Z,17.77
2023-05-08T11:13:17.685Z,17.79
2023-05-08T11:14:17.656Z,17.71
2023-05-08T11:17:17.966Z,18.01
2023-05-08T11:18:18.490Z,17.98
2023-05-08T11:19:18.009Z,17.87
2023-05-08T11:20:17.944Z,17.79
2023-05-08T11:21:17.862Z,17.76
2023-05-08T11:22:18.087Z,17.68
2023-05-08T11:23:17.926Z,17.79
2023-05-08T11:24:18.663Z,17.65
2023-05-08T11:25:19.915Z,17.52
2023-05-08T11:26:18.718Z,17.39
2023-05-08T11:29:18.702Z,17.15
2023-05-08T11:31:18.174Z,17.20
2023-05-08T11:32:18.396Z,17.09
2023-05-08T11:33:18.408Z,17.07
2023-05-08T11:35:18.277Z,17.03
2023-05-08T11:36:18.309Z,17.06
2023-05-08T11:37:18.356Z,16.97
2023-05-08T11:38:18.388Z,16.97
2023-05-08T11:39:18.393Z,16.94
2023-05-08T11:40:18.633Z,17.03
2023-05-08T11:41:19.166Z,17.09
2023-05-08T11:42:18.482Z,16.99
2023-05-08T11:43:18.700Z,17.06
2023-05-08T11:45:18.816Z,17.07
2023-05-08T11:46:18.817Z,17.06
2023-05-08T11:47:18.822Z,17.06
2023-05-08T11:48:18.684Z,17.09
2023-05-08T11:49:21.482Z,17.00
2023-05-08T11:50:19.430Z,17.17
2023-05-08T11:51:18.755Z,17.25
2023-05-08T11:54:18.831Z,17.31
2023-05-08T11:55:18.865Z,17.36
2023-05-08T11:56:19.093Z,17.36
2023-05-08T11:57:19.354Z,17.40
2023-05-08T11:58:19.661Z,17.32
2023-05-08T12:01:19.242Z,17.35
2023-05-08T12:02:19.796Z,17.32
2023-05-08T12:04:19.485Z,17.43
2023-05-08T12:06:19.394Z,17.65
2023-05-08T12:07:19.220Z,17.63
2023-05-08T12:08:19.449Z,17.60
2023-05-08T12:09:19.276Z,17.50
2023-05-08T12:10:19.719Z,17.45
2023-05-08T12:11:19.338Z,17.62
2023-05-08T12:12:19.365Z,17.46
2023-05-08T12:13:19.518Z,17.49
2023-05-08T12:14:19.639Z,17.54
2023-05-08T12:16:19.481Z,17.40
2023-05-08T12:18:19.750Z,17.43
2023-05-08T12:19:19.599Z,17.52
2023-05-08T12:20:20.074Z,17.63
2023-05-08T12:21:19.612Z,17.63
2023-05-08T12:22:19.657Z,17.65
2023-05-08T12:23:19.887Z,17.65
2023-05-08T12:26:19.771Z,17.65
2023-05-08T12:31:19.954Z,17.73
2023-05-08T12:34:20.212Z,17.95
2023-05-08T12:35:20.958Z,17.95
2023-05-08T12:36:20.071Z,17.96
2023-05-08T12:37:20.108Z,17.96
2023-05-08T12:39:20.366Z,18.08
2023-05-08T12:40:20.206Z,17.98
2023-05-08T12:41:20.812Z,18.03
2023-05-08T12:42:20.859Z,18.16
2023-05-08T12:45:20.489Z,18.34
2023-05-08T12:46:20.398Z,18.32
2023-05-08T12:47:20.538Z,18.44
2023-05-08T12:48:20.415Z,18.45
2023-05-08T12:49:20.464Z,18.51
2023-05-08T12:50:20.490Z,18.56
2023-05-08T12:51:20.526Z,18.51
2023-05-08T12:52:20.547Z,18.57
2023-05-08T12:53:20.591Z,18.59
2023-05-08T12:54:20.616Z,18.69
2023-05-08T12:55:20.649Z,18.69
2023-05-08T12:56:20.668Z,18.75
2023-05-08T12:57:20.690Z,18.76
2023-05-08T12:58:20.714Z,18.63
2023-05-08T12:59:20.747Z,18.61
2023-05-08T13:00:20.770Z,18.72
2023-05-08T13:01:20.854Z,18.84
2023-05-08T13:02:20.955Z,18.90
2023-05-08T13:03:21.049Z,18.86
2023-05-08T13:04:20.983Z,18.87
2023-05-08T13:05:20.926Z,18.89
2023-05-08T13:06:20.969Z,18.82
2023-05-08T13:08:21.033Z,18.76
2023-05-08T13:09:21.048Z,18.65
2023-05-08T13:10:23.594Z,18.61
2023-05-08T13:11:21.121Z,18.61
2023-05-08T13:12:21.458Z,18.60
2023-05-08T13:13:21.549Z,18.75
2023-05-08T13:14:21.227Z,18.75
2023-05-08T13:15:21.448Z,18.84
2023-05-08T13:16:21.315Z,18.89
2023-05-08T13:17:21.376Z,18.90
2023-05-08T13:19:21.473Z,18.99
2023-05-08T13:20:21.590Z,19.05
2023-05-08T13:21:21.416Z,19.02
2023-05-08T13:22:21.450Z,18.91
2023-05-08T13:23:21.675Z,18.82
2023-05-08T13:24:21.500Z,18.84
2023-05-08T13:25:21.544Z,18.71
2023-05-08T13:26:21.607Z,18.61
2023-05-08T13:27:21.626Z,18.69
2023-05-08T13:28:21.828Z,18.71
2023-05-08T13:29:21.667Z,18.60
2023-05-08T13:30:21.683Z,18.71
2023-05-08T13:31:21.744Z,18.61
2023-05-08T13:32:21.836Z,18.84
2023-05-08T13:33:21.789Z,18.81
2023-05-08T13:34:21.823Z,18.81
2023-05-08T13:35:21.963Z,18.63
2023-05-08T13:36:21.871Z,18.68
2023-05-08T13:37:21.895Z,18.78
2023-05-08T13:38:21.934Z,18.78
2023-05-08T13:39:21.953Z,18.74
2023-05-08T13:40:21.984Z,18.78
2023-05-08T13:41:22.030Z,18.90
2023-05-08T13:42:22.046Z,18.89
2023-05-08T13:43:22.083Z,18.84
2023-05-08T13:44:22.101Z,18.87
2023-05-08T13:45:22.138Z,18.87
2023-05-08T13:46:22.233Z,18.94
2023-05-08T13:47:22.216Z,18.96
2023-05-08T13:48:22.226Z,19.06
2023-05-08T13:49:22.257Z,19.19
2023-05-08T13:50:22.388Z,19.16
2023-05-08T13:51:22.442Z,18.99
2023-05-08T13:52:22.349Z,19.00
2023-05-08T13:53:22.380Z,19.09
2023-05-08T13:54:22.411Z,19.09
2023-05-08T13:55:22.438Z,19.06
2023-05-08T13:56:22.474Z,19.12
2023-05-08T13:57:22.503Z,19.13